Time;durP1;ratioP1;P1;durP2;ratioP2;P2;SDS_P1;SDS_P2;PMS_P1;PMS_P2;Temp;Humidity;BMP_temperature;BMP_pressure;BME280_temperature;BME280_humidity;BME280_pressure;Samples;Min_cycle;Max_cycle;Signal;HPM_P1;HPM_P2
2021/06/15 00:00:13;;;;;;;2.40;2.20;;;24.10;59.00;;;;;;4913286;29;20056;-67
2021/06/15 00:02:59;;;;;;;2.47;2.25;;;24.10;59.00;;;;;;4918241;29;20083;-67
2021/06/15 00:05:25;;;;;;;3.10;2.15;;;24.00;58.80;;;;;;4917638;29;20136;-67
2021/06/15 00:07:51;;;;;;;6.22;2.63;;;24.00;58.90;;;;;;4921647;29;20508;-68
2021/06/15 00:10:20;;;;;;;2.83;2.20;;;24.00;58.90;;;;;;4901194;29;20060;-67
2021/06/15 00:12:47;;;;;;;2.17;1.92;;;24.00;58.90;;;;;;4924538;29;20139;-67
2021/06/15 00:15:14;;;;;;;2.70;2.35;;;23.90;58.90;;;;;;4922298;29;20115;-68
2021/06/15 00:17:41;;;;;;;3.63;2.17;;;23.90;58.90;;;;;;4927941;29;20519;-67
2021/06/15 00:20:08;;;;;;;2.72;2.08;;;23.90;58.90;;;;;;4932031;29;20094;-67
2021/06/15 00:22:34;;;;;;;3.92;2.08;;;23.90;58.90;;;;;;4928580;29;20055;-67
2021/06/15 00:25:00;;;;;;;2.40;2.17;;;23.90;59.00;;;;;;4932035;29;20123;-67
2021/06/15 00:27:29;;;;;;;2.90;2.22;;;23.90;59.00;;;;;;4928336;29;20059;-67
2021/06/15 00:29:55;;;;;;;2.50;2.05;;;23.90;59.00;;;;;;4930296;29;20055;-67
2021/06/15 00:32:21;;;;;;;2.35;2.15;;;23.90;58.90;;;;;;4929653;29;20058;-67
2021/06/15 00:34:47;;;;;;;3.40;2.28;;;24.00;58.90;;;;;;4931458;29;20134;-67
2021/06/15 00:37:13;;;;;;;2.25;2.08;;;23.90;58.90;;;;;;4927550;29;20146;-67
2021/06/15 00:39:39;;;;;;;2.58;2.38;;;23.90;58.90;;;;;;4908520;29;20056;-67
2021/06/15 00:42:06;;;;;;;2.60;2.33;;;23.90;58.40;;;;;;4930643;29;20142;-67
2021/06/15 00:44:33;;;;;;;4.45;2.53;;;23.90;58.30;;;;;;4932005;29;20060;-68
2021/06/15 00:47:00;;;;;;;3.13;2.83;;;23.90;58.20;;;;;;4930544;29;20424;-66
2021/06/15 00:49:30;;;;;;;3.03;2.45;;;23.90;58.30;;;;;;4913618;29;20135;-68
2021/06/15 00:51:56;;;;;;;5.07;3.10;;;23.90;58.40;;;;;;4914126;29;20075;-67
2021/06/15 00:54:23;;;;;;;3.15;2.90;;;23.80;58.30;;;;;;4930457;29;20098;-67
2021/06/15 00:56:50;;;;;;;2.97;2.47;;;23.90;58.40;;;;;;4914592;29;20091;-67
2021/06/15 00:59:17;;;;;;;4.38;2.60;;;23.80;59.10;;;;;;4927150;29;20512;-67
2021/06/15 01:01:44;;;;;;;3.88;2.75;;;23.80;58.50;;;;;;4924467;29;20084;-66
2021/06/15 01:04:12;;;;;;;2.90;2.65;;;23.80;58.60;;;;;;4910094;29;20163;-67
2021/06/15 01:07:17;;;;;;;4.38;2.90;;;23.80;58.70;;;;;;4944286;29;20064;-67
2021/06/15 01:09:52;;;;;;;3.00;2.10;;;23.80;58.80;;;;;;4915896;29;20151;-67
2021/06/15 01:12:43;;;;;;;3.53;2.60;;;23.80;58.90;;;;;;4932019;29;20056;-67
2021/06/15 01:15:23;;;;;;;3.10;2.47;;;23.80;58.90;;;;;;4933160;29;20192;-67
2021/06/15 01:17:58;;;;;;;3.72;2.53;;;23.80;58.70;;;;;;4931736;29;20103;-67
2021/06/15 01:20:35;;;;;;;3.30;2.35;;;23.80;58.60;;;;;;4932950;29;20144;-67
2021/06/15 01:23:27;;;;;;;2.80;2.58;;;23.80;58.70;;;;;;4930950;29;20055;-67
2021/06/15 01:26:20;;;;;;;2.90;2.05;;;23.80;58.80;;;;;;4931581;29;20199;-67
2021/06/15 01:28:52;;;;;;;;;;;23.80;58.90;;;;;;4933311;29;20454;-68
2021/06/15 01:31:25;;;;;;;7.07;2.95;;;23.80;58.90;;;;;;4932938;29;19927;-67
2021/06/15 01:33:59;;;;;;;7.75;2.65;;;23.80;58.80;;;;;;4915699;29;20083;-67
2021/06/15 01:36:32;;;;;;;5.18;2.10;;;23.70;58.80;;;;;;4931318;29;20055;-67
2021/06/15 01:39:05;;;;;;;2.50;2.17;;;23.80;58.80;;;;;;4932525;29;20056;-67
2021/06/15 01:41:44;;;;;;;3.25;2.67;;;23.80;58.80;;;;;;4932683;29;20134;-67
2021/06/15 01:44:13;;;;;;;2.65;2.45;;;23.80;58.80;;;;;;4931176;29;20076;-68
2021/06/15 01:46:48;;;;;;;2.63;2.42;;;23.80;58.70;;;;;;4931473;29;20135;-67
2021/06/15 01:49:19;;;;;;;4.57;2.03;;;23.70;58.70;;;;;;4915364;29;20059;-67
2021/06/15 01:51:48;;;;;;;3.33;2.50;;;23.80;58.60;;;;;;4932646;29;20150;-68
2021/06/15 01:54:23;;;;;;;6.20;2.45;;;23.70;58.60;;;;;;4931014;29;20071;-67
2021/06/15 01:56:54;;;;;;;4.65;2.33;;;23.70;58.60;;;;;;4931163;29;20142;-67
2021/06/15 01:59:25;;;;;;;3.78;2.55;;;23.70;58.60;;;;;;4914766;29;20059;-67
2021/06/15 02:01:55;;;;;;;12.05;2.50;;;23.70;58.50;;;;;;4940466;29;20091;-67
2021/06/15 02:04:30;;;;;;;3.42;2.28;;;23.70;58.30;;;;;;4932361;29;20476;-68
2021/06/15 02:06:59;;;;;;;3.15;2.90;;;23.70;58.40;;;;;;4930811;29;20071;-67
2021/06/15 02:09:31;;;;;;;4.53;2.33;;;23.70;58.40;;;;;;4931659;29;20223;-67
2021/06/15 02:12:23;;;;;;;2.80;2.40;;;23.70;58.40;;;;;;4927751;29;20107;-67
2021/06/15 02:15:17;;;;;;;2.92;2.17;;;23.70;58.40;;;;;;4918157;29;20064;-67
2021/06/15 02:18:17;;;;;;;5.03;2.05;;;23.60;58.40;;;;;;4895276;29;20085;-67
2021/06/15 02:21:13;;;;;;;2.97;2.22;;;23.60;58.40;;;;;;4936182;29;20523;-68
2021/06/15 02:23:43;;;;;;;2.28;2.10;;;23.60;58.50;;;;;;4934700;29;20146;-67
2021/06/15 02:26:14;;;;;;;4.13;2.97;;;23.60;58.50;;;;;;4930784;29;20059;-67
2021/06/15 02:28:50;;;;;;;2.17;1.90;;;23.60;58.70;;;;;;4931522;29;20147;-67
2021/06/15 02:31:20;;;;;;;7.13;2.08;;;23.60;58.70;;;;;;4931819;29;20055;-68
2021/06/15 02:33:53;;;;;;;2.63;2.10;;;23.60;58.80;;;;;;4931292;29;20067;-67
2021/06/15 02:36:30;;;;;;;4.53;2.40;;;23.60;58.90;;;;;;4930370;29;20127;-67
2021/06/15 02:39:07;;;;;;;2.53;2.00;;;23.60;58.80;;;;;;4930885;29;20812;-67
2021/06/15 02:41:37;;;;;;;2.60;2.00;;;23.60;58.70;;;;;;4931555;29;20083;-67
2021/06/15 02:44:05;;;;;;;2.85;1.80;;;23.60;58.90;;;;;;4928909;29;20059;-67
2021/06/15 02:46:34;;;;;;;2.95;2.28;;;23.60;58.80;;;;;;4931223;29;20424;-67
2021/06/15 02:49:07;;;;;;;2.15;1.95;;;23.60;58.90;;;;;;4931403;29;20571;-67
2021/06/15 02:51:38;;;;;;;2.53;2.20;;;23.60;58.90;;;;;;4914296;29;20573;-67
2021/06/15 02:54:09;;;;;;;2.25;2.05;;;23.60;59.00;;;;;;4919435;29;20138;-67
2021/06/15 02:56:41;;;;;;;2.20;2.05;;;23.60;59.10;;;;;;4932213;29;20060;-67
2021/06/15 02:59:09;;;;;;;5.70;2.10;;;23.60;59.10;;;;;;4930903;29;20508;-67
2021/06/15 03:01:36;;;;;;;1.98;1.88;;;23.60;59.10;;;;;;4931268;29;20081;-67
2021/06/15 03:04:03;;;;;;;5.28;2.00;;;23.60;59.20;;;;;;4918414;29;20439;-67
2021/06/15 03:06:30;;;;;;;2.85;2.08;;;23.60;59.10;;;;;;4910596;29;20167;-67
2021/06/15 03:08:58;;;;;;;6.18;2.03;;;23.60;59.10;;;;;;4895129;29;20060;-67
2021/06/15 03:11:27;;;;;;;3.67;1.75;;;23.60;59.10;;;;;;4889191;29;20543;-67
2021/06/15 03:14:13;;;;;;;2.97;1.80;;;23.60;59.10;;;;;;4898559;29;20463;-67
2021/06/15 03:16:40;;;;;;;2.42;1.67;;;23.60;59.20;;;;;;4911965;29;20094;-67
2021/06/15 03:19:19;;;;;;;4.65;2.03;;;23.60;59.20;;;;;;4896003;29;20161;-67
2021/06/15 03:21:59;;;;;;;1.90;1.80;;;23.60;59.00;;;;;;4921409;29;20055;-67
2021/06/15 03:24:27;;;;;;;2.85;1.80;;;23.60;58.90;;;;;;4911722;29;20147;-66
2021/06/15 03:27:04;;;;;;;2.65;2.10;;;23.60;59.00;;;;;;4911617;29;20064;-67
2021/06/15 03:29:36;;;;;;;5.78;1.98;;;23.60;59.10;;;;;;4894752;29;20115;-67
2021/06/15 03:32:11;;;;;;;1.73;1.60;;;23.50;58.90;;;;;;4910578;29;20059;-67
2021/06/15 03:34:44;;;;;;;2.50;1.80;;;23.60;59.00;;;;;;4910611;29;20143;-67
2021/06/15 03:37:20;;;;;;;2.03;1.83;;;23.50;59.00;;;;;;4910117;29;20056;-67
2021/06/15 03:39:49;;;;;;;1.90;1.80;;;23.50;58.90;;;;;;4910408;29;20143;-67
2021/06/15 03:42:33;;;;;;;3.08;1.95;;;23.60;59.00;;;;;;4912183;29;20087;-66
2021/06/15 03:45:04;;;;;;;3.22;2.05;;;23.50;59.00;;;;;;4911729;29;20192;-66
2021/06/15 03:47:33;;;;;;;2.10;1.73;;;23.60;59.00;;;;;;4915614;29;20119;-66
2021/06/15 03:50:00;;;;;;;6.07;2.00;;;23.60;59.00;;;;;;4900340;29;20468;-66
2021/06/15 03:52:36;;;;;;;3.42;1.73;;;23.60;59.10;;;;;;4914050;29;20537;-67
2021/06/15 03:55:05;;;;;;;3.45;1.77;;;23.60;59.30;;;;;;4914548;29;20052;-66
2021/06/15 03:57:33;;;;;;;7.00;2.22;;;23.60;59.40;;;;;;4898614;29;20172;-67
2021/06/15 04:00:03;;;;;;;2.15;1.70;;;23.60;59.40;;;;;;4913961;29;20084;-67
2021/06/15 04:02:41;;;;;;;3.33;2.13;;;23.60;59.40;;;;;;4918073;29;20093;-67
2021/06/15 04:05:09;;;;;;;2.95;1.92;;;23.60;59.50;;;;;;4933969;29;20543;-67
2021/06/15 04:07:35;;;;;;;4.40;1.65;;;23.50;59.50;;;;;;4945264;29;20071;-66
2021/06/15 04:10:04;;;;;;;3.17;1.60;;;23.60;59.60;;;;;;4949505;29;20174;-66
2021/06/15 04:12:30;;;;;;;5.05;1.80;;;23.60;59.60;;;;;;4946132;29;20060;-66
2021/06/15 04:14:58;;;;;;;3.90;1.98;;;23.60;59.60;;;;;;4951125;29;20059;-67
2021/06/15 04:17:31;;;;;;;2.30;1.63;;;23.60;59.40;;;;;;4947577;29;20134;-66
2021/06/15 04:19:59;;;;;;;8.25;1.85;;;23.70;59.50;;;;;;4951033;29;20516;-66
2021/06/15 04:22:30;;;;;;;2.05;1.60;;;23.60;59.40;;;;;;4948346;29;20519;-66
2021/06/15 04:24:58;;;;;;;2.88;1.58;;;23.60;58.70;;;;;;4950733;29;20097;-66
2021/06/15 04:27:26;;;;;;;2.85;1.80;;;23.60;58.50;;;;;;4947032;29;20055;-67
2021/06/15 04:29:54;;;;;;;8.63;1.70;;;23.60;58.30;;;;;;4949769;29;20059;-67
2021/06/15 04:32:29;;;;;;;1.55;1.30;;;23.60;58.30;;;;;;4948255;29;20051;-67
2021/06/15 04:35:02;;;;;;;1.85;1.40;;;23.60;58.50;;;;;;4949617;29;20137;-66
2021/06/15 04:37:29;;;;;;;;;;;23.50;58.60;;;;;;4936442;29;20059;-66
2021/06/15 04:40:02;;;;;;;3.22;1.33;;;23.60;58.80;;;;;;4944975;29;19927;-66
2021/06/15 04:42:53;;;;;;;2.17;1.00;;;23.50;58.80;;;;;;4950657;29;20524;-66
2021/06/15 04:45:30;;;;;;;1.42;1.42;;;23.60;59.60;;;;;;4930850;29;20055;-66
2021/06/15 04:48:04;;;;;;;4.18;1.17;;;23.60;59.80;;;;;;4943786;29;20066;-66
2021/06/15 04:50:32;;;;;;;0.80;0.80;;;23.60;60.00;;;;;;4946260;29;20419;-67
2021/06/15 04:52:59;;;;;;;4.00;0.85;;;23.60;59.90;;;;;;4947480;29;20539;-66
2021/06/15 04:55:34;;;;;;;3.80;1.08;;;23.60;60.50;;;;;;4949999;29;20055;-66
2021/06/15 04:58:02;;;;;;;1.58;1.08;;;23.60;60.00;;;;;;4938011;29;20165;-66
2021/06/15 05:00:30;;;;;;;1.17;0.73;;;23.60;60.10;;;;;;4949473;29;20066;-66
2021/06/15 05:02:57;;;;;;;7.32;1.35;;;23.60;60.10;;;;;;4926587;29;20094;-66
2021/06/15 05:05:24;;;;;;;2.85;1.08;;;23.60;60.20;;;;;;4933171;29;20142;-65
2021/06/15 05:07:59;;;;;;;1.00;1.00;;;23.60;60.10;;;;;;4930408;29;20062;-67
2021/06/15 05:10:28;;;;;;;1.15;0.98;;;23.60;59.90;;;;;;4931971;29;20579;-65
2021/06/15 05:12:54;;;;;;;4.38;1.05;;;23.60;60.40;;;;;;4932218;29;20086;-70
2021/06/15 05:15:26;;;;;;;1.48;0.85;;;23.70;60.90;;;;;;4933658;29;20099;-67
2021/06/15 05:17:54;;;;;;;3.05;0.90;;;23.70;60.80;;;;;;4938089;29;20086;-64
2021/06/15 05:20:22;;;;;;;1.98;0.82;;;23.70;61.00;;;;;;4935879;29;20052;-64
2021/06/15 05:23:15;;;;;;;3.10;0.93;;;23.70;61.30;;;;;;4934437;29;20521;-65
2021/06/15 05:25:42;;;;;;;1.83;0.82;;;23.70;61.60;;;;;;4932176;29;20547;-67
2021/06/15 05:28:08;;;;;;;1.30;0.70;;;23.70;61.70;;;;;;4915349;29;20195;-72
2021/06/15 05:30:34;;;;;;;2.65;0.77;;;23.70;61.80;;;;;;4932702;29;20138;-62
2021/06/15 05:33:00;;;;;;;2.47;0.80;;;23.70;61.80;;;;;;4932209;29;20070;-64
2021/06/15 05:35:26;;;;;;;4.35;0.90;;;23.70;61.90;;;;;;4931788;29;20150;-63
2021/06/15 05:37:52;;;;;;;5.75;0.95;;;23.70;62.10;;;;;;4931251;29;20060;-68
2021/06/15 05:40:18;;;;;;;3.03;0.55;;;23.70;62.10;;;;;;4932318;29;20131;-66
2021/06/15 05:42:45;;;;;;;5.57;1.08;;;23.70;62.20;;;;;;4932344;29;20138;-73
2021/06/15 05:45:12;;;;;;;5.68;0.70;;;23.70;60.00;;;;;;4930580;29;20102;-66
2021/06/15 05:47:38;;;;;;;3.30;1.63;;;23.70;57.60;;;;;;4930749;29;20138;-60
2021/06/15 05:50:06;;;;;;;9.57;0.75;;;23.60;56.90;;;;;;4932527;29;20135;-59
2021/06/15 05:52:32;;;;;;;2.22;0.70;;;23.60;56.50;;;;;;4932368;29;20056;-59
2021/06/15 05:54:59;;;;;;;5.97;0.70;;;23.50;57.20;;;;;;4931872;29;20158;-59
2021/06/15 05:57:26;;;;;;;3.67;0.80;;;23.50;56.20;;;;;;4932266;29;20087;-60
2021/06/15 05:59:53;;;;;;;3.58;0.63;;;23.40;56.50;;;;;;4930725;29;20150;-60
2021/06/15 06:02:19;;;;;;;1.10;0.50;;;23.40;56.00;;;;;;4931538;29;20869;-60
2021/06/15 06:09:59;;;;;;;5.00;0.47;;;23.40;55.80;;;;;;4912427;29;20084;-61
2021/06/15 06:12:24;;;;;;;10.00;0.73;;;23.40;56.20;;;;;;4912609;29;20526;-60
2021/06/15 06:14:51;;;;;;;3.90;0.32;;;23.40;56.90;;;;;;4901552;29;20052;-61
2021/06/15 06:17:18;;;;;;;5.18;1.27;;;23.40;57.10;;;;;;4913367;29;20135;-61
2021/06/15 06:19:45;;;;;;;14.20;1.00;;;23.40;57.50;;;;;;4913164;29;20063;-61
2021/06/15 06:22:13;;;;;;;2.20;0.55;;;23.50;58.00;;;;;;4919898;29;20876;-60
2021/06/15 06:24:40;;;;;;;0.77;0.50;;;23.50;58.00;;;;;;4912815;29;20147;-60
2021/06/15 06:27:06;;;;;;;5.60;0.50;;;23.50;58.00;;;;;;4912393;29;20112;-61
2021/06/15 06:29:32;;;;;;;4.28;0.47;;;23.60;58.20;;;;;;4896030;29;20066;-61
2021/06/15 06:31:59;;;;;;;6.63;0.75;;;23.60;58.10;;;;;;4912688;29;20174;-61
2021/06/15 06:34:25;;;;;;;1.00;0.40;;;23.60;58.00;;;;;;4912479;29;20060;-61
2021/06/15 06:36:52;;;;;;;1.13;0.30;;;23.60;58.30;;;;;;4912770;29;20067;-60
2021/06/15 06:39:18;;;;;;;3.83;0.82;;;23.70;58.10;;;;;;4912355;29;20169;-61
2021/06/15 06:41:44;;;;;;;9.10;0.73;;;23.60;58.40;;;;;;4912039;29;20146;-61
2021/06/15 06:44:10;;;;;;;1.98;0.60;;;23.70;58.50;;;;;;4910709;29;20552;-62
2021/06/15 06:46:37;;;;;;;11.63;0.60;;;23.70;58.80;;;;;;4911655;29;20064;-61
2021/06/15 06:49:03;;;;;;;5.30;1.10;;;23.80;59.20;;;;;;4911999;29;20533;-64
2021/06/15 06:51:29;;;;;;;3.45;0.50;;;23.80;58.60;;;;;;4911461;29;20538;-64
2021/06/15 06:53:56;;;;;;;8.35;0.47;;;23.80;58.60;;;;;;4911509;29;20494;-62
2021/06/15 06:56:22;;;;;;;5.65;0.50;;;23.80;58.00;;;;;;4910625;29;20469;-63
2021/06/15 06:58:48;;;;;;;1.38;0.43;;;23.80;58.30;;;;;;4911345;29;20062;-63
2021/06/15 07:01:14;;;;;;;1.33;0.45;;;23.80;59.10;;;;;;4912266;29;20556;-66
2021/06/15 07:03:40;;;;;;;4.53;0.50;;;23.80;59.30;;;;;;4912536;29;20076;-66
2021/06/15 07:06:06;;;;;;;8.02;0.43;;;23.80;58.90;;;;;;4915076;29;20064;-66
2021/06/15 07:08:32;;;;;;;3.95;0.50;;;23.80;59.40;;;;;;4896181;29;20805;-67
2021/06/15 07:10:58;;;;;;;1.38;0.60;;;23.80;59.90;;;;;;4915014;29;20068;-66
2021/06/15 07:13:24;;;;;;;1.15;0.57;;;23.80;59.70;;;;;;4913004;29;20093;-61
2021/06/15 07:15:50;;;;;;;1.42;0.57;;;23.80;59.70;;;;;;4909890;29;20504;-67
2021/06/15 07:18:16;;;;;;;4.57;0.50;;;23.80;59.50;;;;;;4911787;29;20168;-59
2021/06/15 07:20:42;;;;;;;1.13;0.50;;;23.80;59.60;;;;;;4907761;29;20131;-62
2021/06/15 07:23:08;;;;;;;2.67;0.80;;;23.80;59.20;;;;;;4913442;29;20116;-62
2021/06/15 07:25:35;;;;;;;5.13;0.50;;;23.80;58.60;;;;;;4913688;29;20060;-62
2021/06/15 07:28:02;;;;;;;3.22;0.60;;;23.90;58.40;;;;;;4913506;29;20056;-61
2021/06/15 07:30:28;;;;;;;4.00;0.43;;;23.90;57.50;;;;;;4910504;29;20143;-61
2021/06/15 07:32:58;;;;;;;0.40;0.20;;;23.90;58.70;;;;;;4897354;29;20147;-61
2021/06/15 07:35:24;;;;;;;1.25;0.77;;;24.00;58.70;;;;;;4916038;29;20056;-61
2021/06/15 07:37:51;;;;;;;0.80;0.35;;;24.00;58.90;;;;;;4913531;29;20106;-61
2021/06/15 07:40:23;;;;;;;0.80;0.47;;;24.00;58.80;;;;;;4914916;29;20064;-61
2021/06/15 07:42:54;;;;;;;1.85;0.50;;;24.00;58.50;;;;;;4912813;29;20139;-61
2021/06/15 07:45:21;;;;;;;2.05;0.28;;;24.10;58.80;;;;;;4910493;29;20143;-65
2021/06/15 07:47:47;;;;;;;1.85;0.68;;;24.10;58.50;;;;;;4897080;29;20088;-65
2021/06/15 07:50:14;;;;;;;1.33;0.40;;;24.10;58.70;;;;;;4915970;29;20106;-60
2021/06/15 07:52:41;;;;;;;3.05;0.60;;;24.20;59.30;;;;;;4922324;29;20134;-61
2021/06/15 07:55:08;;;;;;;2.35;0.50;;;24.20;58.60;;;;;;4918388;29;20457;-61
2021/06/15 07:57:34;;;;;;;1.83;0.60;;;24.20;58.40;;;;;;4921569;29;20115;-60
2021/06/15 08:00:00;;;;;;;0.60;0.60;;;24.20;58.40;;;;;;4917443;29;20066;-60
2021/06/15 08:02:28;;;;;;;1.33;0.55;;;24.30;58.30;;;;;;4923051;29;20091;-61
2021/06/15 08:04:54;;;;;;;1.52;0.65;;;24.30;58.20;;;;;;4917546;29;20524;-62
2021/06/15 08:07:20;;;;;;;5.03;0.90;;;24.30;57.90;;;;;;4923029;29;20139;-61
2021/06/15 08:09:46;;;;;;;0.95;0.38;;;24.40;58.20;;;;;;4915779;29;20151;-61
2021/06/15 08:12:14;;;;;;;1.00;0.40;;;24.40;58.00;;;;;;4922335;29;20085;-62
2021/06/15 08:14:41;;;;;;;5.97;0.60;;;24.40;57.70;;;;;;4917366;29;20139;-58
2021/06/15 08:17:06;;;;;;;1.58;0.95;;;24.40;57.20;;;;;;4922736;29;20163;-57
2021/06/15 08:19:32;;;;;;;6.80;0.40;;;24.50;57.30;;;;;;4916277;29;20133;-58
2021/06/15 08:21:58;;;;;;;2.97;0.80;;;24.50;57.40;;;;;;4922354;29;20204;-59
2021/06/15 08:24:25;;;;;;;0.95;0.30;;;24.50;57.50;;;;;;4917180;29;20695;-58
2021/06/15 08:26:50;;;;;;;0.80;0.60;;;24.60;57.30;;;;;;4922183;29;20051;-58
2021/06/15 08:29:17;;;;;;;1.17;0.68;;;24.60;56.90;;;;;;4917453;29;20563;-58
2021/06/15 08:31:43;;;;;;;4.90;0.75;;;24.60;57.10;;;;;;4923054;29;20142;-57
2021/06/15 08:34:09;;;;;;;6.32;0.30;;;24.70;57.10;;;;;;4920079;29;20055;-58
2021/06/15 08:36:36;;;;;;;4.63;0.40;;;24.70;57.20;;;;;;4924290;29;20140;-59
2021/06/15 08:39:04;;;;;;;0.93;0.40;;;24.70;56.70;;;;;;4920159;29;20409;-61
2021/06/15 08:41:31;;;;;;;3.72;0.60;;;24.70;56.80;;;;;;4924173;29;20423;-60
2021/06/15 08:43:58;;;;;;;2.40;0.60;;;24.80;57.30;;;;;;4919700;29;20134;-61
2021/06/15 08:46:24;;;;;;;2.53;0.30;;;24.90;57.10;;;;;;4924679;29;20056;-62
2021/06/15 08:48:51;;;;;;;2.00;0.30;;;24.90;57.00;;;;;;4919846;29;20070;-62
2021/06/15 08:51:17;;;;;;;4.78;0.68;;;24.90;57.00;;;;;;4924778;29;20099;-60
2021/06/15 08:53:43;;;;;;;1.75;0.30;;;25.00;56.70;;;;;;4919957;29;20060;-60
2021/06/15 08:56:22;;;;;;;2.38;0.60;;;25.00;56.60;;;;;;4924453;29;20066;-60
2021/06/15 08:58:56;;;;;;;2.97;0.30;;;25.10;56.50;;;;;;4915859;29;20204;-59
2021/06/15 09:01:22;;;;;;;5.95;0.55;;;25.10;56.50;;;;;;4921396;29;20060;-60
2021/06/15 09:03:51;;;;;;;1.30;0.43;;;25.10;56.40;;;;;;4919752;29;20059;-59
2021/06/15 09:06:18;;;;;;;6.00;0.60;;;25.10;56.00;;;;;;4913816;29;20630;-60
2021/06/15 09:08:59;;;;;;;3.08;0.50;;;25.20;56.30;;;;;;4918363;29;20060;-60
2021/06/15 09:11:27;;;;;;;5.05;0.70;;;25.20;56.20;;;;;;4917445;29;20634;-59
2021/06/15 09:13:54;;;;;;;1.95;0.50;;;25.20;56.10;;;;;;4917473;29;20424;-59
2021/06/15 09:16:27;;;;;;;3.58;0.45;;;25.20;55.80;;;;;;4917252;29;20060;-58
2021/06/15 09:18:55;;;;;;;2.03;0.68;;;25.30;56.20;;;;;;4918402;29;20062;-58
2021/06/15 09:21:30;;;;;;;4.00;0.65;;;25.30;55.60;;;;;;4916316;29;20056;-59
2021/06/15 09:24:04;;;;;;;9.90;1.52;;;25.40;54.70;;;;;;4918944;29;20134;-61
2021/06/15 09:27:00;;;;;;;0.73;0.40;;;25.40;54.20;;;;;;4916297;29;20063;-59
2021/06/15 09:29:54;;;;;;;0.90;0.30;;;25.40;54.70;;;;;;4916085;29;20439;-55
2021/06/15 09:32:24;;;;;;;2.55;0.52;;;25.50;54.80;;;;;;4911639;29;20060;-58
2021/06/15 09:34:56;;;;;;;0.80;0.40;;;25.50;55.30;;;;;;4915790;29;20143;-59
2021/06/15 09:37:37;;;;;;;1.60;0.35;;;25.50;55.10;;;;;;4916644;29;20945;-58
2021/06/15 09:40:22;;;;;;;1.42;0.57;;;25.50;55.30;;;;;;4901377;29;20130;-57
2021/06/15 09:42:54;;;;;;;1.10;0.50;;;25.50;53.70;;;;;;4913936;29;20807;-57
2021/06/15 09:45:21;;;;;;;9.15;1.13;;;25.50;53.10;;;;;;4916783;29;20197;-59
2021/06/15 09:47:47;;;;;;;2.83;0.38;;;25.50;53.10;;;;;;4914187;29;20056;-58
2021/06/15 09:50:13;;;;;;;2.33;0.40;;;25.50;53.70;;;;;;4913504;29;20119;-57
2021/06/15 09:52:40;;;;;;;2.35;0.52;;;25.50;54.70;;;;;;4915151;29;20159;-56
2021/06/15 09:55:07;;;;;;;3.15;0.50;;;25.50;54.10;;;;;;4916004;29;20556;-57
2021/06/15 09:57:40;;;;;;;6.43;0.47;;;25.50;54.30;;;;;;4917339;29;20059;-57
2021/06/15 10:00:22;;;;;;;1.70;0.28;;;25.50;54.00;;;;;;4924979;29;20572;-58
2021/06/15 10:02:52;;;;;;;1.33;0.45;;;25.50;54.10;;;;;;4928204;29;20436;-58
2021/06/15 10:05:35;;;;;;;1.00;0.32;;;25.50;54.40;;;;;;4924872;29;20563;-58
2021/06/15 10:08:03;;;;;;;;;;;25.50;54.40;;;;;;4926930;29;20059;-58
2021/06/15 10:10:32;;;;;;;0.43;0.30;;;25.50;54.40;;;;;;4921153;29;20013;-59
2021/06/15 10:12:59;;;;;;;0.77;0.20;;;25.50;54.40;;;;;;4930446;29;20056;-59
2021/06/15 10:15:27;;;;;;;3.92;0.25;;;25.50;54.30;;;;;;4930975;29;20056;-58
2021/06/15 10:17:54;;;;;;;0.50;0.40;;;25.50;54.40;;;;;;4930491;29;20142;-58
2021/06/15 10:20:39;;;;;;;3.30;0.70;;;25.60;54.60;;;;;;4930729;29;20056;-56
2021/06/15 10:23:06;;;;;;;7.32;0.65;;;25.60;54.60;;;;;;4914954;29;20066;-56
2021/06/15 10:25:33;;;;;;;6.93;0.90;;;25.50;54.50;;;;;;4928699;29;20056;-56
2021/06/15 10:28:09;;;;;;;0.68;0.50;;;25.50;54.70;;;;;;4930494;29;20115;-56
2021/06/15 10:30:37;;;;;;;1.85;0.52;;;25.50;54.60;;;;;;4928999;29;21391;-56
2021/06/15 10:33:21;;;;;;;0.65;0.40;;;25.50;54.50;;;;;;4930189;29;20106;-57
2021/06/15 10:35:50;;;;;;;2.15;0.43;;;25.60;55.00;;;;;;4925793;29;20158;-56
2021/06/15 10:38:39;;;;;;;0.75;0.20;;;25.50;55.50;;;;;;4922081;29;20468;-57
2021/06/15 10:41:06;;;;;;;2.83;0.55;;;25.60;55.50;;;;;;4916652;29;20134;-57
2021/06/15 10:43:35;;;;;;;1.15;0.20;;;25.60;55.20;;;;;;4928306;29;20487;-57
2021/06/15 10:46:37;;;;;;;0.38;0.30;;;25.60;55.20;;;;;;4929489;29;20056;-57
2021/06/15 10:49:14;;;;;;;0.57;0.40;;;25.70;54.60;;;;;;4909320;29;20075;-59
2021/06/15 10:51:49;;;;;;;1.20;0.43;;;25.80;54.40;;;;;;4918982;29;20524;-58
2021/06/15 10:54:30;;;;;;;0.35;0.30;;;25.70;54.10;;;;;;4912504;29;20472;-53
2021/06/15 10:57:17;;;;;;;5.97;0.50;;;25.70;54.60;;;;;;4914339;29;20056;-57
2021/06/15 11:00:05;;;;;;;3.33;0.30;;;25.70;54.20;;;;;;4915043;29;20147;-57
2021/06/15 11:02:32;;;;;;;2.20;0.50;;;25.70;54.30;;;;;;4911245;29;20115;-58
2021/06/15 11:05:19;;;;;;;2.92;0.30;;;25.60;54.50;;;;;;4912341;29;20094;-57
2021/06/15 11:07:45;;;;;;;0.50;0.40;;;25.70;54.30;;;;;;4866101;29;20083;-58
2021/06/15 11:10:11;;;;;;;0.77;0.55;;;25.70;53.70;;;;;;4917162;29;20131;-58
2021/06/15 11:12:47;;;;;;;4.38;0.22;;;25.70;53.10;;;;;;4916017;29;20055;-58
2021/06/15 11:15:24;;;;;;;0.50;0.40;;;25.70;52.90;;;;;;4918745;29;20117;-58
2021/06/15 11:17:55;;;;;;;2.53;0.38;;;25.80;53.70;;;;;;4914000;29;20535;-58
2021/06/15 11:20:32;;;;;;;1.10;0.50;;;25.70;53.50;;;;;;4917372;29;20055;-58
2021/06/15 11:23:34;;;;;;;1.38;0.30;;;25.70;53.80;;;;;;4915961;29;20065;-58
2021/06/15 11:26:13;;;;;;;0.93;0.77;;;25.80;53.70;;;;;;4873876;29;20065;-58
2021/06/15 11:28:43;;;;;;;1.70;0.45;;;25.80;53.80;;;;;;4908348;29;20056;-62
2021/06/15 11:31:31;;;;;;;2.40;0.50;;;25.90;53.30;;;;;;4912310;29;20135;-62
2021/06/15 11:34:14;;;;;;;1.83;0.60;;;25.90;53.70;;;;;;4913924;29;20064;-58
2021/06/15 11:36:47;;;;;;;1.50;0.50;;;25.90;53.80;;;;;;4912053;29;20142;-58
2021/06/15 11:39:28;;;;;;;2.22;0.40;;;25.90;53.80;;;;;;4916845;29;20151;-61
2021/06/15 11:42:21;;;;;;;5.22;1.05;;;25.90;53.70;;;;;;4917204;29;20127;-58
2021/06/15 11:45:05;;;;;;;0.80;0.40;;;25.90;53.60;;;;;;4912176;29;20056;-62
2021/06/15 11:47:47;;;;;;;1.52;0.40;;;25.90;53.70;;;;;;4918957;29;20143;-58
2021/06/15 11:50:19;;;;;;;1.83;0.52;;;25.90;53.90;;;;;;4899273;29;20589;-61
2021/06/15 11:52:53;;;;;;;3.90;0.73;;;25.90;53.90;;;;;;4920514;29;20127;-61
2021/06/15 11:55:26;;;;;;;2.95;0.75;;;25.90;54.00;;;;;;4911707;29;20060;-59
2021/06/15 11:58:01;;;;;;;1.48;0.73;;;25.90;54.10;;;;;;4918213;29;20064;-61
2021/06/15 12:00:29;;;;;;;5.85;0.77;;;26.00;54.20;;;;;;4915964;29;20074;-62
2021/06/15 12:03:08;;;;;;;0.75;0.73;;;25.90;54.30;;;;;;4916238;29;20560;-59
2021/06/15 12:05:36;;;;;;;3.53;0.50;;;25.90;54.60;;;;;;4922013;29;20054;-59
2021/06/15 12:08:02;;;;;;;0.88;0.77;;;25.90;54.70;;;;;;4922378;29;20092;-59
2021/06/15 12:10:28;;;;;;;1.33;0.90;;;25.90;54.90;;;;;;4926867;29;20059;-59
2021/06/15 12:13:02;;;;;;;0.68;0.68;;;25.90;55.20;;;;;;4921920;29;20070;-59
2021/06/15 12:15:36;;;;;;;2.88;0.85;;;25.90;55.30;;;;;;4924173;29;20135;-58
2021/06/15 12:18:04;;;;;;;1.02;1.00;;;25.80;55.60;;;;;;4918159;29;20436;-59
2021/06/15 12:20:33;;;;;;;0.80;0.80;;;25.90;55.70;;;;;;4920454;29;20099;-58
2021/06/15 12:23:37;;;;;;;1.02;0.95;;;25.90;56.00;;;;;;4917677;29;20112;-58
2021/06/15 12:26:26;;;;;;;0.93;0.75;;;25.80;56.20;;;;;;4917771;29;20178;-58
2021/06/15 12:28:59;;;;;;;1.05;0.70;;;25.80;56.40;;;;;;4919405;29;20060;-58
2021/06/15 12:31:41;;;;;;;5.85;0.90;;;25.80;56.50;;;;;;4917262;29;20135;-59
2021/06/15 12:34:09;;;;;;;;;;;25.80;56.70;;;;;;4918052;29;20058;-58
2021/06/15 12:36:44;;;;;;;4.60;1.02;;;25.80;56.80;;;;;;4919568;29;20017;-58
2021/06/15 12:39:19;;;;;;;1.33;0.50;;;25.80;56.90;;;;;;4914695;29;20147;-59
2021/06/15 12:41:56;;;;;;;0.55;0.55;;;25.80;57.40;;;;;;4923098;29;20062;-58
2021/06/15 12:44:29;;;;;;;0.95;0.50;;;25.80;57.70;;;;;;4916800;29;20048;-59
2021/06/15 12:47:02;;;;;;;3.55;1.42;;;25.80;57.80;;;;;;4918762;29;20139;-59
2021/06/15 12:49:29;;;;;;;3.70;0.82;;;25.70;58.00;;;;;;4918061;29;20133;-59
2021/06/15 12:52:10;;;;;;;0.75;0.75;;;25.70;58.10;;;;;;4917222;29;20060;-59
2021/06/15 12:54:42;;;;;;;1.67;0.70;;;25.70;58.20;;;;;;4918821;29;20131;-59
2021/06/15 12:57:27;;;;;;;0.93;0.52;;;25.70;58.40;;;;;;4917065;29;20126;-59
2021/06/15 12:59:57;;;;;;;1.23;1.15;;;25.70;58.40;;;;;;4915204;29;20139;-59
2021/06/15 13:02:25;;;;;;;2.83;0.55;;;25.70;58.60;;;;;;4919210;29;20064;-58
2021/06/15 13:04:53;;;;;;;1.05;0.88;;;25.70;58.90;;;;;;4918173;29;20056;-56
2021/06/15 13:07:21;;;;;;;3.53;0.55;;;25.70;59.00;;;;;;4918456;29;20148;-58
2021/06/15 13:09:48;;;;;;;5.75;0.88;;;25.70;58.30;;;;;;4916684;29;20060;-58
2021/06/15 13:12:23;;;;;;;4.28;0.70;;;25.70;58.50;;;;;;4918222;29;20802;-60
2021/06/15 13:15:05;;;;;;;1.48;0.77;;;25.60;58.80;;;;;;4916870;29;20135;-59